Time;durP1;ratioP1;P1;durP2;ratioP2;P2;SDS_P1;SDS_P2;PMS_P1;PMS_P2;Temp;Humidity;BMP_temperature;BMP_pressure;BME280_temperature;BME280_humidity;BME280_pressure;Samples;Min_cycle;Max_cycle;Signal;HPM_P1;HPM_P2
2022/12/20 00:02:09;;;;;;;6.15;2.90;;;11.10;79.00;;;;;;5097289;28;20032;-64
2022/12/20 00:04:35;;;;;;;8.07;3.05;;;11.10;79.00;;;;;;5107530;28;20035;-64
2022/12/20 00:07:00;;;;;;;6.82;3.05;;;11.10;78.90;;;;;;5107239;28;20076;-65
2022/12/20 00:09:26;;;;;;;6.65;2.78;;;11.10;78.90;;;;;;5113684;28;20019;-64
2022/12/20 00:11:51;;;;;;;6.97;2.78;;;11.10;78.90;;;;;;5096409;28;20043;-64
2022/12/20 00:14:17;;;;;;;5.40;2.42;;;11.10;78.90;;;;;;5111667;28;20082;-64
2022/12/20 00:16:43;;;;;;;7.07;2.50;;;11.10;78.80;;;;;;5111038;28;20016;-64
2022/12/20 00:19:10;;;;;;;6.68;2.50;;;11.10;78.90;;;;;;5113505;28;20089;-64
2022/12/20 00:21:36;;;;;;;7.88;2.65;;;11.10;78.90;;;;;;5095785;28;20016;-63
2022/12/20 00:24:03;;;;;;;6.72;2.95;;;11.10;78.80;;;;;;5111869;28;20497;-63
2022/12/20 00:26:31;;;;;;;5.50;2.63;;;11.10;78.80;;;;;;5100805;28;20491;-64
2022/12/20 00:28:59;;;;;;;6.55;2.72;;;11.10;78.80;;;;;;5117279;27;20031;-64
2022/12/20 00:31:26;;;;;;;6.32;2.90;;;11.10;78.70;;;;;;5095389;28;20035;-64
2022/12/20 00:33:54;;;;;;;6.03;2.50;;;11.10;78.60;;;;;;5085355;28;20073;-64
2022/12/20 00:36:21;;;;;;;7.28;3.08;;;11.20;78.60;;;;;;5106757;28;20024;-64
2022/12/20 00:38:49;;;;;;;5.28;2.30;;;11.20;78.50;;;;;;5099886;28;20035;-64
2022/12/20 00:41:18;;;;;;;5.40;2.58;;;11.20;78.40;;;;;;5102888;27;20040;-67
2022/12/20 00:43:44;;;;;;;6.68;2.33;;;11.20;78.40;;;;;;5105405;28;20099;-64
2022/12/20 00:46:11;;;;;;;7.70;2.85;;;11.30;78.40;;;;;;5097598;28;20427;-64
2022/12/20 00:48:37;;;;;;;5.05;2.38;;;11.30;78.30;;;;;;5100857;28;20032;-64
2022/12/20 00:51:08;;;;;;;5.70;2.45;;;11.30;78.20;;;;;;5094588;28;20044;-64
2022/12/20 00:53:35;;;;;;;;;;;11.30;78.10;;;;;;5101570;28;20067;-64
2022/12/20 00:56:01;;;;;;;6.72;2.28;;;11.40;78.10;;;;;;5117446;27;20011;-64
2022/12/20 00:58:27;;;;;;;4.85;2.03;;;11.40;78.00;;;;;;5111296;27;20115;-64
2022/12/20 01:00:53;;;;;;;7.32;2.80;;;11.40;77.90;;;;;;5107870;28;20036;-64
2022/12/20 01:03:19;;;;;;;5.30;2.60;;;11.40;77.80;;;;;;5098309;28;20065;-64
2022/12/20 01:05:52;;;;;;;7.25;2.50;;;11.40;77.80;;;;;;5114185;28;20097;-64
2022/12/20 01:08:19;;;;;;;5.90;2.33;;;11.50;77.80;;;;;;5094518;28;20066;-64
2022/12/20 01:10:44;;;;;;;8.02;3.17;;;11.50;77.70;;;;;;5112800;28;20032;-64
2022/12/20 01:13:10;;;;;;;6.03;2.40;;;11.50;77.60;;;;;;5117903;27;20115;-64
2022/12/20 01:15:36;;;;;;;4.93;2.38;;;11.50;77.60;;;;;;5102593;28;20031;-64
2022/12/20 01:18:02;;;;;;;6.50;2.30;;;11.50;77.60;;;;;;5105300;27;20367;-64
2022/12/20 01:20:27;;;;;;;5.65;2.30;;;11.50;77.50;;;;;;5115766;28;20091;-64
2022/12/20 01:22:53;;;;;;;6.47;2.65;;;11.50;77.50;;;;;;5109017;28;20027;-64
2022/12/20 01:25:18;;;;;;;7.07;2.53;;;11.60;77.50;;;;;;5098477;28;20027;-64
2022/12/20 01:27:45;;;;;;;7.05;2.17;;;11.60;77.50;;;;;;5095940;28;20038;-64
2022/12/20 01:30:12;;;;;;;7.43;2.47;;;11.60;77.50;;;;;;5096457;28;20035;-64
2022/12/20 01:32:38;;;;;;;7.35;2.30;;;11.60;77.50;;;;;;5094150;28;20027;-64
2022/12/20 01:35:04;;;;;;;7.72;2.97;;;11.60;77.50;;;;;;5099027;28;20020;-64
2022/12/20 01:37:30;;;;;;;5.65;2.22;;;11.60;77.50;;;;;;5108965;28;20167;-65
2022/12/20 01:39:56;;;;;;;5.38;2.40;;;11.60;77.50;;;;;;5117430;28;20360;-64
2022/12/20 01:42:22;;;;;;;7.68;2.33;;;11.60;77.50;;;;;;5112378;28;20487;-64
2022/12/20 01:44:55;;;;;;;5.43;2.53;;;11.60;77.50;;;;;;5113365;28;20022;-64
2022/12/20 01:47:22;;;;;;;5.50;2.20;;;11.60;77.50;;;;;;5097176;28;20036;-64
2022/12/20 01:49:51;;;;;;;5.43;2.45;;;11.60;77.60;;;;;;5101049;28;20020;-64
2022/12/20 01:52:40;;;;;;;5.78;2.20;;;11.60;77.60;;;;;;5098963;28;20034;-64
2022/12/20 01:55:27;;;;;;;4.28;1.98;;;11.60;77.80;;;;;;5113170;28;20023;-64
2022/12/20 01:58:03;;;;;;;4.93;2.35;;;11.60;78.00;;;;;;5096188;28;20047;-64
2022/12/20 02:00:29;;;;;;;6.07;2.40;;;11.50;78.10;;;;;;5104663;28;20030;-64
2022/12/20 02:03:00;;;;;;;5.47;2.25;;;11.50;78.30;;;;;;5114863;28;20105;-64
2022/12/20 02:05:37;;;;;;;8.20;2.88;;;11.50;78.50;;;;;;5101763;28;20032;-64
2022/12/20 02:08:04;;;;;;;5.22;2.45;;;11.50;78.70;;;;;;5106393;28;20449;-64
2022/12/20 02:11:00;;;;;;;5.82;2.60;;;11.40;78.80;;;;;;5092954;28;20414;-64
2022/12/20 02:13:41;;;;;;;9.77;2.63;;;11.50;79.20;;;;;;5107833;28;20026;-64
2022/12/20 02:16:06;;;;;;;6.85;2.95;;;11.40;79.20;;;;;;5102318;28;20032;-64
2022/12/20 02:18:44;;;;;;;7.30;2.67;;;11.40;79.50;;;;;;5106591;28;20135;-64
2022/12/20 02:21:19;;;;;;;7.97;2.50;;;11.40;79.80;;;;;;5098362;28;20097;-64
2022/12/20 02:24:11;;;;;;;7.25;2.53;;;11.40;80.00;;;;;;5100213;28;20035;-65
2022/12/20 02:27:14;;;;;;;6.22;2.60;;;11.40;80.20;;;;;;5106854;28;20039;-64
2022/12/20 02:29:59;;;;;;;9.52;3.03;;;11.40;80.40;;;;;;5113932;27;20047;-64
2022/12/20 02:32:38;;;;;;;6.13;2.47;;;11.30;80.60;;;;;;5108043;28;20460;-64
2022/12/20 02:35:07;;;;;;;4.65;2.22;;;11.30;80.80;;;;;;5114834;27;20115;-64
2022/12/20 02:37:33;;;;;;;6.38;2.53;;;11.30;81.10;;;;;;5103249;28;20026;-64
2022/12/20 02:40:01;;;;;;;7.47;3.38;;;11.30;81.30;;;;;;5104404;28;20341;-64
2022/12/20 02:42:29;;;;;;;6.97;3.08;;;11.30;81.50;;;;;;5111943;28;20052;-64
2022/12/20 02:45:16;;;;;;;6.43;2.90;;;11.30;81.70;;;;;;5105645;28;20098;-64
2022/12/20 02:47:53;;;;;;;6.60;2.80;;;11.30;82.00;;;;;;5108945;28;20028;-63
2022/12/20 02:50:25;;;;;;;5.80;2.70;;;11.20;82.00;;;;;;5115541;28;20023;-64
2022/12/20 02:52:53;;;;;;;5.55;2.92;;;11.20;82.20;;;;;;5112619;28;20016;-64
2022/12/20 02:55:26;;;;;;;6.25;2.70;;;11.20;82.20;;;;;;5094903;28;20406;-64
2022/12/20 02:58:04;;;;;;;6.30;3.00;;;11.20;82.40;;;;;;5112162;27;20391;-64
2022/12/20 03:00:37;;;;;;;6.53;2.92;;;11.20;82.60;;;;;;5097562;27;20019;-64
2022/12/20 03:03:21;;;;;;;5.57;2.55;;;11.20;82.70;;;;;;5096971;28;20035;-63
2022/12/20 03:05:49;;;;;;;7.18;2.95;;;11.20;82.70;;;;;;5113650;28;20027;-64
2022/12/20 03:08:18;;;;;;;5.55;2.75;;;11.20;82.80;;;;;;5104066;28;20051;-64
2022/12/20 03:10:44;;;;;;;5.15;2.53;;;11.20;82.90;;;;;;5110012;28;20110;-64
2022/12/20 03:13:10;;;;;;;6.05;2.85;;;11.30;83.00;;;;;;5091042;28;20024;-64
2022/12/20 03:15:42;;;;;;;6.07;2.75;;;11.20;83.10;;;;;;5087309;28;20085;-64
2022/12/20 03:18:08;;;;;;;6.63;2.63;;;11.20;83.20;;;;;;5113168;28;20052;-64
2022/12/20 03:20:35;;;;;;;5.13;2.30;;;11.30;83.30;;;;;;5114939;28;20066;-64
2022/12/20 03:23:01;;;;;;;6.32;2.83;;;11.30;83.40;;;;;;5113348;28;20027;-64
2022/12/20 03:25:27;;;;;;;7.40;3.03;;;11.30;83.40;;;;;;5110517;28;20019;-64
2022/12/20 03:27:55;;;;;;;7.00;2.95;;;11.30;83.50;;;;;;5100881;27;20019;-64
2022/12/20 03:30:23;;;;;;;5.72;2.47;;;11.30;83.60;;;;;;5100673;28;20076;-63
2022/12/20 03:32:49;;;;;;;6.72;2.63;;;11.30;83.60;;;;;;5104480;28;20389;-64
2022/12/20 03:35:15;;;;;;;7.10;2.85;;;11.30;83.60;;;;;;5097785;28;20115;-64
2022/12/20 03:37:40;;;;;;;6.63;2.67;;;11.30;83.60;;;;;;5097019;28;20074;-64
2022/12/20 03:40:08;;;;;;;5.97;2.67;;;11.30;83.70;;;;;;5096391;28;20076;-64
2022/12/20 03:42:35;;;;;;;6.35;2.80;;;11.30;83.60;;;;;;5096186;27;20028;-64
2022/12/20 03:45:00;;;;;;;6.32;2.60;;;11.30;83.60;;;;;;5097638;28;20036;-64
2022/12/20 03:47:28;;;;;;;6.70;3.20;;;11.30;83.60;;;;;;5103658;28;20064;-64
2022/12/20 03:49:54;;;;;;;5.38;2.38;;;11.30;83.60;;;;;;5091605;28;20052;-64
2022/12/20 03:52:20;;;;;;;7.38;2.72;;;11.30;83.70;;;;;;5087547;28;20016;-64
2022/12/20 03:54:46;;;;;;;5.63;2.60;;;11.30;83.60;;;;;;5098651;28;20027;-64
2022/12/20 03:57:20;;;;;;;5.90;2.35;;;11.30;83.60;;;;;;5099069;28;20074;-64
2022/12/20 03:59:48;;;;;;;5.93;2.63;;;11.30;83.60;;;;;;5098519;28;20049;-64
2022/12/20 04:02:15;;;;;;;6.55;2.92;;;11.40;83.60;;;;;;5094832;28;20078;-64
2022/12/20 04:04:41;;;;;;;5.63;2.30;;;11.40;83.50;;;;;;5090456;28;20525;-64
2022/12/20 04:07:07;;;;;;;6.90;2.80;;;11.40;83.50;;;;;;5100394;28;20169;-64
2022/12/20 04:09:35;;;;;;;7.07;2.78;;;11.40;83.50;;;;;;5104386;27;20025;-64
2022/12/20 04:12:08;;;;;;;5.60;2.53;;;11.40;83.40;;;;;;5104174;27;20023;-64
2022/12/20 04:14:36;;;;;;;6.47;2.97;;;11.40;83.30;;;;;;5104261;28;20107;-64
2022/12/20 04:17:03;;;;;;;5.30;2.20;;;11.50;83.30;;;;;;5094103;28;20027;-64
2022/12/20 04:19:28;;;;;;;7.03;2.90;;;11.50;83.30;;;;;;5100409;28;20031;-63
2022/12/20 04:21:55;;;;;;;6.95;2.70;;;11.50;83.30;;;;;;5105892;28;20042;-64
2022/12/20 04:24:21;;;;;;;6.95;2.63;;;11.50;83.30;;;;;;5096197;28;20421;-64
2022/12/20 04:26:56;;;;;;;7.57;2.92;;;11.50;83.20;;;;;;5107636;28;20050;-63
2022/12/20 04:29:22;;;;;;;6.10;2.42;;;11.50;83.10;;;;;;5104076;28;20103;-64
2022/12/20 04:31:48;;;;;;;6.50;3.00;;;11.50;83.10;;;;;;5107712;28;20030;-64
2022/12/20 04:34:14;;;;;;;5.55;2.50;;;11.50;83.10;;;;;;5093572;28;20023;-64
2022/12/20 04:36:40;;;;;;;5.60;2.40;;;11.50;83.10;;;;;;5090861;28;20107;-64
2022/12/20 04:39:11;;;;;;;7.35;2.95;;;11.50;83.00;;;;;;5099439;28;20126;-64
2022/12/20 04:41:48;;;;;;;6.47;2.78;;;11.50;83.00;;;;;;5109346;28;20080;-64
2022/12/20 04:44:14;;;;;;;5.90;2.53;;;11.60;83.00;;;;;;5092009;28;20360;-64
2022/12/20 04:46:40;;;;;;;6.22;2.33;;;11.50;82.90;;;;;;5109679;28;20080;-64
2022/12/20 04:49:10;;;;;;;6.35;2.78;;;11.50;83.00;;;;;;5100600;28;20058;-64
2022/12/20 04:51:39;;;;;;;7.43;2.78;;;11.60;83.00;;;;;;5098661;28;20016;-64
2022/12/20 04:54:04;;;;;;;5.90;2.47;;;11.60;83.00;;;;;;5102688;28;20016;-64
2022/12/20 04:56:38;;;;;;;9.38;2.58;;;11.60;82.90;;;;;;5105344;27;20027;-64
2022/12/20 04:59:09;;;;;;;6.72;2.25;;;11.60;82.80;;;;;;5107002;28;20151;-63
2022/12/20 05:01:35;;;;;;;8.02;2.72;;;11.60;82.80;;;;;;5097701;28;20023;-64
2022/12/20 05:04:01;;;;;;;7.40;2.85;;;11.60;82.80;;;;;;5089942;28;20384;-64
2022/12/20 05:06:31;;;;;;;5.88;2.90;;;11.60;82.80;;;;;;5079158;28;20023;-64
2022/12/20 05:08:57;;;;;;;6.97;2.55;;;11.60;82.80;;;;;;5100478;28;20173;-64
2022/12/20 05:11:23;;;;;;;4.55;2.28;;;11.70;82.70;;;;;;5096037;28;20027;-64
2022/12/20 05:13:49;;;;;;;7.05;2.65;;;11.70;82.70;;;;;;5083201;28;20117;-64
2022/12/20 05:16:18;;;;;;;5.53;2.20;;;11.70;82.70;;;;;;5100669;28;20022;-64
2022/12/20 05:18:44;;;;;;;7.25;2.50;;;11.70;82.80;;;;;;5096359;28;20040;-64
2022/12/20 05:26:52;;;;;;;8.38;2.60;;;11.70;82.90;;;;;;5097315;28;20399;-64
2022/12/20 05:29:18;;;;;;;6.30;2.80;;;11.70;82.90;;;;;;5095281;28;20107;-64
2022/12/20 05:31:44;;;;;;;5.93;2.50;;;11.70;83.00;;;;;;5084141;28;20019;-64
2022/12/20 05:34:10;;;;;;;5.25;2.40;;;11.70;83.10;;;;;;5096034;28;20042;-64
2022/12/20 05:36:37;;;;;;;6.40;2.60;;;11.70;83.30;;;;;;5093104;28;20023;-64
2022/12/20 05:39:05;;;;;;;8.13;2.83;;;11.70;83.40;;;;;;5108700;28;20066;-63
2022/12/20 05:41:33;;;;;;;6.93;2.47;;;11.70;83.50;;;;;;5108998;28;20026;-65
2022/12/20 05:44:00;;;;;;;7.13;2.50;;;11.60;83.60;;;;;;5110146;28;20024;-64
2022/12/20 05:46:27;;;;;;;7.35;2.70;;;11.60;83.70;;;;;;5113232;28;20417;-64
2022/12/20 05:48:58;;;;;;;7.55;2.55;;;11.60;83.80;;;;;;5096377;28;20114;-64
2022/12/20 05:51:24;;;;;;;5.43;2.53;;;11.60;83.80;;;;;;5111615;28;20177;-65
2022/12/20 05:53:59;;;;;;;6.18;2.67;;;11.60;83.90;;;;;;5111774;28;20073;-64
2022/12/20 05:56:39;;;;;;;7.20;3.33;;;11.60;84.00;;;;;;5098133;28;20019;-64
2022/12/20 05:59:05;;;;;;;7.18;3.00;;;11.60;84.10;;;;;;5093761;28;21690;-64
2022/12/20 06:01:34;;;;;;;7.38;3.17;;;11.60;84.20;;;;;;5110679;28;20405;-64
2022/12/20 06:04:00;;;;;;;6.63;2.97;;;11.60;84.30;;;;;;5115069;28;20031;-64
2022/12/20 06:06:26;;;;;;;5.93;2.75;;;11.60;84.40;;;;;;5115220;28;20042;-64
2022/12/20 06:08:52;;;;;;;7.72;3.00;;;11.60;84.40;;;;;;5118816;27;20028;-65
2022/12/20 06:11:28;;;;;;;5.82;2.85;;;11.60;84.50;;;;;;5122347;27;20034;-65
2022/12/20 06:13:59;;;;;;;6.38;2.53;;;11.60;84.50;;;;;;5099041;28;20023;-64
2022/12/20 06:16:26;;;;;;;5.35;2.58;;;11.60;84.50;;;;;;5099083;28;20455;-64
2022/12/20 06:18:55;;;;;;;7.03;2.80;;;11.60;85.20;;;;;;5098494;28;20071;-64
2022/12/20 06:21:22;;;;;;;6.55;2.97;;;11.60;84.50;;;;;;5115812;28;20398;-64
2022/12/20 06:23:48;;;;;;;5.47;2.72;;;11.60;84.50;;;;;;5096010;28;20080;-64
2022/12/20 06:26:15;;;;;;;6.50;2.90;;;11.60;84.50;;;;;;5103417;28;20415;-63
2022/12/20 06:28:51;;;;;;;6.60;2.60;;;11.60;84.50;;;;;;5099972;28;20026;-63
2022/12/20 06:31:19;;;;;;;6.63;2.63;;;11.60;84.50;;;;;;5104547;27;20028;-63
2022/12/20 06:33:49;;;;;;;5.70;2.40;;;11.60;84.50;;;;;;5109368;28;20020;-64
2022/12/20 06:36:16;;;;;;;5.93;2.42;;;11.70;84.40;;;;;;5099356;28;20024;-64
2022/12/20 06:38:42;;;;;;;5.47;2.55;;;11.70;84.40;;;;;;5100002;28;20032;-64
2022/12/20 06:41:08;;;;;;;4.75;2.42;;;11.70;84.30;;;;;;5090082;28;20024;-64
2022/12/20 06:43:34;;;;;;;5.93;2.33;;;11.70;84.20;;;;;;5111569;28;20023;-64
2022/12/20 06:46:01;;;;;;;6.72;2.80;;;11.70;84.10;;;;;;5097143;28;20028;-64
2022/12/20 06:48:27;;;;;;;5.85;2.78;;;11.80;84.10;;;;;;5096053;28;20046;-63
2022/12/20 06:50:53;;;;;;;6.90;2.55;;;11.80;84.00;;;;;;5102896;28;20498;-63
2022/12/20 06:53:19;;;;;;;6.88;2.53;;;11.80;84.00;;;;;;5115873;28;20535;-63
2022/12/20 06:55:49;;;;;;;6.72;2.35;;;11.80;83.90;;;;;;5099217;28;20062;-63
2022/12/20 06:58:16;;;;;;;4.55;2.03;;;11.80;83.90;;;;;;5103152;28;20084;-64
2022/12/20 07:00:45;;;;;;;6.05;2.63;;;11.80;83.80;;;;;;5117284;27;20031;-64
2022/12/20 07:03:10;;;;;;;5.32;2.50;;;11.80;83.80;;;;;;5104539;28;20326;-63
2022/12/20 07:05:36;;;;;;;6.40;2.83;;;11.80;83.70;;;;;;5104658;28;20053;-64
2022/12/20 07:08:03;;;;;;;5.45;2.20;;;11.90;83.70;;;;;;5106073;28;20034;-66
2022/12/20 07:10:30;;;;;;;6.38;2.40;;;11.90;83.50;;;;;;5100798;28;20034;-65
2022/12/20 07:12:56;;;;;;;5.38;2.28;;;11.90;83.40;;;;;;5097857;28;20030;-65
2022/12/20 07:15:21;;;;;;;7.82;2.72;;;11.90;83.20;;;;;;5104725;28;20012;-64
2022/12/20 07:17:47;;;;;;;5.22;2.10;;;12.00;83.10;;;;;;5105725;28;20418;-64
2022/12/20 07:20:13;;;;;;;6.43;2.40;;;12.00;83.00;;;;;;5091089;28;20487;-64
2022/12/20 07:22:39;;;;;;;5.38;2.40;;;12.00;83.00;;;;;;5109137;28;20019;-64
2022/12/20 07:25:05;;;;;;;4.97;2.20;;;12.00;82.90;;;;;;5112777;27;20461;-65
2022/12/20 07:27:31;;;;;;;5.03;2.38;;;12.00;82.80;;;;;;5095790;28;20114;-65
2022/12/20 07:29:58;;;;;;;6.07;2.28;;;12.00;82.80;;;;;;5101295;28;20036;-64
2022/12/20 07:32:24;;;;;;;5.18;2.10;;;12.00;82.70;;;;;;5112721;27;20015;-64
2022/12/20 07:34:49;;;;;;;5.35;1.98;;;11.90;82.70;;;;;;5111787;27;20966;-65
2022/12/20 07:37:15;;;;;;;5.82;2.42;;;11.90;82.60;;;;;;5098725;28;20011;-65
2022/12/20 07:39:41;;;;;;;7.75;2.30;;;11.90;82.50;;;;;;5110650;28;20019;-65
2022/12/20 07:42:08;;;;;;;5.20;2.20;;;11.90;82.40;;;;;;5109100;28;20047;-65
2022/12/20 07:44:41;;;;;;;6.88;2.47;;;11.90;82.30;;;;;;5110538;28;20027;-64
2022/12/20 07:47:08;;;;;;;4.53;2.30;;;12.00;82.30;;;;;;5124536;27;20031;-65
2022/12/20 07:49:34;;;;;;;5.28;2.05;;;12.00;82.20;;;;;;5093546;28;20019;-65
2022/12/20 07:52:03;;;;;;;5.13;2.00;;;12.00;82.10;;;;;;5108969;28;20027;-65
2022/12/20 07:54:40;;;;;;;5.20;2.10;;;12.00;82.00;;;;;;5107281;28;20043;-65
2022/12/20 07:57:11;;;;;;;6.85;2.40;;;12.00;81.90;;;;;;5092479;28;20030;-65
2022/12/20 07:59:46;;;;;;;4.78;2.03;;;12.00;81.80;;;;;;5109767;28;20020;-65
2022/12/20 08:02:17;;;;;;;5.90;2.13;;;12.00;81.70;;;;;;5107954;28;20028;-65
2022/12/20 08:04:43;;;;;;;5.20;1.90;;;12.00;81.70;;;;;;5092532;28;20023;-66
2022/12/20 08:07:10;;;;;;;5.45;2.30;;;12.00;81.60;;;;;;5109916;28;20038;-65
2022/12/20 08:09:40;;;;;;;6.07;2.55;;;12.00;81.40;;;;;;5108469;28;20455;-66
2022/12/20 08:12:08;;;;;;;4.90;1.98;;;12.00;81.30;;;;;;5091492;28;20078;-65
2022/12/20 08:14:35;;;;;;;4.57;2.22;;;12.00;81.30;;;;;;5106388;28;20043;-65
2022/12/20 08:17:01;;;;;;;8.55;2.50;;;12.00;81.30;;;;;;5091453;28;20092;-65
2022/12/20 08:19:27;;;;;;;6.18;2.10;;;12.00;81.30;;;;;;5105080;27;20445;-64
2022/12/20 08:21:53;;;;;;;5.10;2.28;;;12.00;81.40;;;;;;5078768;28;20486;-64
2022/12/20 08:24:19;;;;;;;6.78;2.40;;;12.00;81.40;;;;;;5097722;28;20027;-64
2022/12/20 08:26:45;;;;;;;5.07;2.10;;;12.00;81.40;;;;;;5098514;28;20367;-65
2022/12/20 08:29:11;;;;;;;5.15;2.30;;;12.00;81.50;;;;;;5103085;28;20114;-64
2022/12/20 08:31:38;;;;;;;5.35;2.45;;;12.00;81.40;;;;;;5104320;28;20114;-64
2022/12/20 08:34:05;;;;;;;6.18;2.85;;;12.00;81.40;;;;;;5102337;28;20174;-64
2022/12/20 08:36:30;;;;;;;5.18;1.90;;;12.00;81.40;;;;;;5107528;27;20077;-65
2022/12/20 08:38:56;;;;;;;4.38;1.95;;;12.00;81.40;;;;;;5095651;28;20410;-65
2022/12/20 08:41:22;;;;;;;5.80;2.28;;;12.00;81.50;;;;;;5105474;28;20032;-65
2022/12/20 08:43:48;;;;;;;7.13;2.55;;;12.00;81.50;;;;;;5100683;28;20031;-65
2022/12/20 08:46:14;;;;;;;6.28;2.60;;;12.00;81.60;;;;;;5085602;28;20501;-64
2022/12/20 08:48:40;;;;;;;4.78;2.20;;;12.00;81.70;;;;;;5110874;28;20410;-65
2022/12/20 08:51:09;;;;;;;5.88;2.30;;;12.00;81.70;;;;;;5105556;28;20337;-65
2022/12/20 08:53:36;;;;;;;5.82;2.47;;;12.00;81.70;;;;;;5107930;28;20020;-64
2022/12/20 08:56:07;;;;;;;7.25;2.47;;;12.00;81.70;;;;;;5105147;28;20439;-64
2022/12/20 08:58:33;;;;;;;7.03;2.50;;;12.00;81.70;;;;;;5106241;28;20024;-65
2022/12/20 09:01:00;;;;;;;4.55;1.88;;;12.00;81.60;;;;;;5112823;28;20023;-64
2022/12/20 09:03:29;;;;;;;5.45;2.20;;;12.00;81.70;;;;;;5112398;28;20095;-64
2022/12/20 09:05:56;;;;;;;4.50;1.92;;;12.00;81.70;;;;;;5098178;28;20039;-64
2022/12/20 09:08:21;;;;;;;6.82;2.40;;;12.00;81.70;;;;;;5110169;28;20035;-64
2022/12/20 09:10:47;;;;;;;5.18;2.15;;;12.00;81.70;;;;;;5113729;28;20345;-64
2022/12/20 09:13:13;;;;;;;5.60;2.28;;;12.00;81.80;;;;;;5118040;27;20038;-64
2022/12/20 09:15:39;;;;;;;5.88;2.13;;;11.90;81.90;;;;;;5114052;28;20114;-64
2022/12/20 09:18:05;;;;;;;5.15;2.05;;;11.90;82.10;;;;;;5112496;28;20051;-65
2022/12/20 09:20:31;;;;;;;5.85;2.50;;;11.90;82.30;;;;;;5094185;28;20482;-64
2022/12/20 09:22:58;;;;;;;6.72;2.70;;;11.90;82.40;;;;;;5107513;28;20415;-64
2022/12/20 09:25:27;;;;;;;6.93;2.72;;;11.90;82.60;;;;;;5097338;28;20042;-64
2022/12/20 09:27:55;;;;;;;6.40;2.65;;;11.90;82.70;;;;;;5101614;28;20115;-64
2022/12/20 09:30:22;;;;;;;5.20;2.20;;;11.80;82.80;;;;;;5103087;28;20081;-65
2022/12/20 09:32:48;;;;;;;6.05;2.17;;;11.80;83.10;;;;;;5102737;28;20032;-64
2022/12/20 09:35:14;;;;;;;5.97;2.40;;;11.80;83.10;;;;;;5109711;28;20081;-65
2022/12/20 09:37:40;;;;;;;4.97;2.20;;;11.80;83.30;;;;;;5098679;28;20356;-65
2022/12/20 09:40:16;;;;;;;6.20;2.17;;;11.80;83.30;;;;;;5111104;28;20039;-65
2022/12/20 09:42:42;;;;;;;6.32;2.22;;;11.80;83.50;;;;;;5109943;28;20020;-64
2022/12/20 09:45:13;;;;;;;5.63;2.38;;;11.80;83.50;;;;;;5102177;28;20020;-64
2022/12/20 09:47:40;;;;;;;6.95;2.30;;;11.80;83.50;;;;;;5103650;28;20024;-65
2022/12/20 09:50:13;;;;;;;5.63;2.25;;;11.80;83.50;;;;;;5124745;27;20091;-65
2022/12/20 09:52:57;;;;;;;4.13;2.10;;;11.80;83.60;;;;;;5111997;28;20019;-64
2022/12/20 09:55:54;;;;;;;6.07;2.40;;;11.80;83.70;;;;;;5094094;28;20080;-64
2022/12/20 09:58:44;;;;;;;4.53;2.10;;;11.90;83.70;;;;;;5100518;28;20119;-64
2022/12/20 10:01:21;;;;;;;4.43;1.92;;;11.90;83.70;;;;;;5100064;28;20135;-64
2022/12/20 10:03:47;;;;;;;4.68;2.22;;;11.80;83.70;;;;;;5098916;28;20456;-64
2022/12/20 10:06:28;;;;;;;6.93;2.47;;;11.80;83.70;;;;;;5121531;27;20037;-64
2022/12/20 10:08:56;;;;;;;6.28;2.65;;;11.90;83.80;;;;;;5105403;28;20032;-64
2022/12/20 10:12:04;;;;;;;4.43;2.00;;;11.90;83.80;;;;;;5100174;28;20102;-64
2022/12/20 10:14:42;;;;;;;4.90;1.85;;;11.90;83.80;;;;;;5038649;28;20040;-64
2022/12/20 10:17:25;;;;;;;4.03;1.90;;;11.90;83.90;;;;;;5022183;28;20021;-65
2022/12/20 10:20:18;;;;;;;6.03;2.08;;;11.90;83.90;;;;;;5040398;28;20147;-65
2022/12/20 10:22:58;;;;;;;6.43;2.63;;;11.90;84.00;;;;;;5035757;28;20096;-64
2022/12/20 10:25:31;;;;;;;9.13;2.58;;;11.90;84.00;;;;;;5040377;28;20037;-65
2022/12/20 10:28:00;;;;;;;5.75;2.00;;;11.90;84.00;;;;;;5037511;28;20040;-65
2022/12/20 10:30:27;;;;;;;5.18;2.28;;;11.90;84.10;;;;;;5020504;28;20041;-65
2022/12/20 10:32:56;;;;;;;7.80;2.28;;;11.90;84.10;;;;;;5036685;28;20394;-65
2022/12/20 10:35:30;;;;;;;6.90;2.60;;;11.90;84.20;;;;;;5020905;28;20596;-66
2022/12/20 10:38:06;;;;;;;6.88;2.45;;;11.90;84.30;;;;;;5033415;28;20037;-65
2022/12/20 10:40:59;;;;;;;8.00;2.30;;;11.90;84.40;;;;;;5037999;28;20109;-66
2022/12/20 10:43:25;;;;;;;6.38;2.38;;;11.90;84.40;;;;;;5044057;28;20408;-65
2022/12/20 10:46:05;;;;;;;6.03;2.17;;;11.80;84.40;;;;;;5090114;28;20047;-65
2022/12/20 10:48:32;;;;;;;6.75;3.03;;;11.90;84.60;;;;;;5094399;28;20024;-65
2022/12/20 10:51:11;;;;;;;6.72;2.60;;;11.90;84.60;;;;;;5106576;28;20082;-65
2022/12/20 10:53:49;;;;;;;6.15;2.13;;;11.90;84.70;;;;;;5082895;28;20035;-66
2022/12/20 10:56:22;;;;;;;6.72;2.78;;;11.90;84.70;;;;;;5096416;28;20036;-66
2022/12/20 10:58:56;;;;;;;6.50;2.50;;;11.90;84.70;;;;;;5104960;28;20383;-66
2022/12/20 11:01:26;;;;;;;5.72;2.30;;;11.90;84.70;;;;;;5101999;28;20027;-66
2022/12/20 11:03:52;;;;;;;5.80;2.45;;;11.90;84.80;;;;;;5101039;28;20192;-66
2022/12/20 11:06:20;;;;;;;6.13;2.30;;;11.90;84.70;;;;;;5101319;28;20036;-66
2022/12/20 11:08:47;;;;;;;6.60;3.00;;;11.90;84.80;;;;;;5097947;28;20352;-66
2022/12/20 11:11:22;;;;;;;5.43;2.38;;;11.90;84.80;;;;;;5113682;27;20032;-66
2022/12/20 11:13:49;;;;;;;5.75;2.33;;;11.90;84.90;;;;;;5095892;28;20119;-69
2022/12/20 11:16:22;;;;;;;6.00;2.90;;;11.90;84.90;;;;;;5107977;28;20044;-65
2022/12/20 11:19:05;;;;;;;6.38;2.50;;;11.90;84.90;;;;;;5108392;28;20099;-65
2022/12/20 11:21:46;;;;;;;6.07;2.35;;;12.00;85.00;;;;;;5108660;28;20039;-66
2022/12/20 11:24:39;;;;;;;5.47;2.63;;;11.90;85.00;;;;;;5115081;27;20028;-66
2022/12/20 11:27:22;;;;;;;5.20;2.40;;;11.90;85.10;;;;;;5109744;28;20509;-65
2022/12/20 11:30:20;;;;;;;6.45;2.83;;;11.90;85.10;;;;;;5095666;28;20105;-65
2022/12/20 11:33:28;;;;;;;5.40;2.33;;;11.90;85.10;;;;;;5110213;27;20015;-65
2022/12/20 11:35:57;;;;;;;6.38;2.55;;;11.90;85.20;;;;;;5094279;28;20027;-65
2022/12/20 11:38:42;;;;;;;6.70;2.70;;;11.90;85.10;;;;;;5108023;28;20106;-66
2022/12/20 11:41:29;;;;;;;7.35;2.67;;;12.00;85.20;;;;;;5105531;27;20024;-66
2022/12/20 11:44:15;;;;;;;6.97;2.47;;;12.00;85.20;;;;;;5112222;27;20031;-66
2022/12/20 11:46:56;;;;;;;5.55;2.50;;;12.00;85.30;;;;;;5091011;28;20027;-66
2022/12/20 11:49:30;;;;;;;5.75;2.20;;;12.00;85.30;;;;;;5106969;28;20030;-65
2022/12/20 11:52:04;;;;;;;5.82;2.38;;;12.00;85.30;;;;;;5106270;28;20452;-65
2022/12/20 11:54:59;;;;;;;8.40;3.40;;;12.00;85.30;;;;;;5097324;28;20391;-65
2022/12/20 11:57:31;;;;;;;6.47;2.30;;;12.00;85.40;;;;;;5095625;27;20134;-65
2022/12/20 12:00:01;;;;;;;7.18;2.50;;;12.00;85.40;;;;;;5090840;28;20045;-65
2022/12/20 12:03:00;;;;;;;5.63;2.50;;;12.00;85.40;;;;;;5110120;28;20030;-65
2022/12/20 12:05:34;;;;;;;6.20;2.42;;;12.10;85.40;;;;;;5113895;27;20448;-66
2022/12/20 12:08:09;;;;;;;6.20;2.55;;;12.00;85.40;;;;;;5107609;27;20338;-66
2022/12/20 12:10:38;;;;;;;6.40;2.67;;;12.10;85.50;;;;;;5106986;28;20035;-65
2022/12/20 12:13:19;;;;;;;6.40;2.63;;;12.10;85.50;;;;;;5106587;28;20055;-66
2022/12/20 12:15:51;;;;;;;6.68;2.95;;;12.10;85.60;;;;;;5106539;28;20035;-66
2022/12/20 12:18:21;;;;;;;8.00;2.97;;;12.10;85.60;;;;;;5092585;28;20055;-66
2022/12/20 12:20:54;;;;;;;6.10;2.85;;;12.10;85.70;;;;;;5105694;28;20028;-65
2022/12/20 12:23:38;;;;;;;6.82;3.08;;;12.10;85.70;;;;;;5105766;28;20031;-66
2022/12/20 12:26:20;;;;;;;7.57;2.78;;;12.10;85.70;;;;;;5106087;28;20031;-70
2022/12/20 12:28:54;;;;;;;6.85;2.90;;;12.10;85.70;;;;;;5098298;28;20035;-66
2022/12/20 12:31:46;;;;;;;8.45;3.40;;;12.10;85.70;;;;;;5108831;28;20023;-66
2022/12/20 12:35:02;;;;;;;5.57;2.42;;;12.20;85.80;;;;;;5094909;28;20036;-66
2022/12/20 12:37:53;;;;;;;6.45;2.47;;;12.20;85.70;;;;;;5100545;27;20045;-66
2022/12/20 12:40:49;;;;;;;7.72;2.90;;;12.20;85.70;;;;;;5108011;28;20047;-66
2022/12/20 12:43:48;;;;;;;6.13;2.50;;;12.20;85.70;;;;;;5107642;28;20055;-65
2022/12/20 12:46:31;;;;;;;5.63;2.60;;;12.10;85.70;;;;;;5121629;27;20030;-65
2022/12/20 12:49:02;;;;;;;6.47;2.53;;;12.20;85.80;;;;;;5106116;28;20035;-65
2022/12/20 12:51:35;;;;;;;6.25;2.90;;;12.10;85.80;;;;;;5093206;28;20030;-65
2022/12/20 12:54:02;;;;;;;6.43;2.83;;;12.10;85.90;;;;;;5111616;27;20030;-66
2022/12/20 12:56:30;;;;;;;6.88;3.25;;;12.20;86.00;;;;;;5109447;28;20032;-66
2022/12/20 12:59:04;;;;;;;6.07;2.65;;;12.20;86.00;;;;;;5109259;28;20059;-66
2022/12/20 13:01:54;;;;;;;7.70;2.92;;;12.20;86.10;;;;;;5112677;27;20101;-65
2022/12/20 13:04:19;;;;;;;7.15;2.97;;;12.20;86.00;;;;;;5092701;28;20035;-66
2022/12/20 13:06:48;;;;;;;6.57;3.00;;;12.20;86.00;;;;;;5108286;28;20559;-66
2022/12/20 13:09:19;;;;;;;7.57;3.28;;;12.20;86.10;;;;;;5092392;28;20352;-65
2022/12/20 13:11:45;;;;;;;7.05;3.35;;;12.10;86.50;;;;;;5109563;27;20039;-70
2022/12/20 13:14:21;;;;;;;6.43;2.97;;;12.20;86.20;;;;;;5091741;28;20024;-70